createdAt,value
2017-12-16T00:00:41.538Z,5.47
2017-12-16T00:03:09.987Z,8.33
2017-12-16T00:05:38.354Z,5.60
2017-12-16T00:08:07.724Z,3.83
2017-12-16T00:10:35.995Z,2.60
2017-12-16T00:13:04.276Z,4.33
2017-12-16T00:15:32.507Z,4.13
2017-12-16T00:18:00.796Z,6.17
2017-12-16T00:20:29.081Z,4.77
2017-12-16T00:22:57.416Z,3.93
2017-12-16T00:25:25.837Z,3.53
2017-12-16T00:27:54.177Z,3.37
2017-12-16T00:30:22.407Z,6.97
2017-12-16T00:32:50.694Z,5.97
2017-12-16T00:35:18.934Z,4.83
2017-12-16T00:37:47.213Z,3.97
2017-12-16T00:40:15.460Z,5.27
2017-12-16T00:42:44.499Z,4.60
2017-12-16T00:45:12.735Z,6.30
2017-12-16T00:47:41.886Z,5.00
2017-12-16T00:50:10.175Z,5.07
2017-12-16T00:52:38.543Z,4.90
2017-12-16T00:55:06.854Z,4.53
2017-12-16T00:57:35.152Z,2.23
2017-12-16T01:00:03.400Z,2.30
2017-12-16T01:02:32.431Z,3.83
2017-12-16T01:05:00.675Z,6.37
2017-12-16T01:07:28.946Z,6.60
2017-12-16T01:09:57.223Z,4.27
2017-12-16T01:12:25.544Z,6.23
2017-12-16T01:14:53.796Z,5.50
2017-12-16T01:17:22.072Z,6.57
2017-12-16T01:19:50.346Z,3.10
2017-12-16T01:22:18.587Z,2.33
2017-12-16T01:24:46.864Z,5.63
2017-12-16T01:27:15.160Z,6.13
2017-12-16T01:29:43.443Z,3.27
2017-12-16T01:32:11.716Z,3.33
2017-12-16T01:34:57.615Z,6.20
2017-12-16T01:37:43.675Z,4.07
2017-12-16T01:40:12.059Z,6.00
2017-12-16T01:42:40.315Z,3.97
2017-12-16T01:45:08.695Z,3.53
2017-12-16T01:47:37.179Z,7.23
2017-12-16T01:50:05.457Z,5.43
2017-12-16T01:52:33.717Z,5.13
2017-12-16T01:55:01.996Z,5.60
2017-12-16T01:57:30.240Z,3.30
2017-12-16T01:59:58.518Z,2.20
2017-12-16T02:02:26.821Z,2.67
2017-12-16T02:04:55.160Z,2.27
2017-12-16T02:07:23.407Z,4.43
2017-12-16T02:09:51.684Z,10.17
2017-12-16T02:12:19.929Z,3.80
2017-12-16T02:14:48.216Z,4.13
2017-12-16T02:17:16.461Z,6.33
2017-12-16T02:19:44.734Z,3.83
2017-12-16T02:22:12.979Z,5.10
2017-12-16T02:24:41.338Z,6.97
2017-12-16T02:27:09.744Z,7.03
2017-12-16T02:29:38.291Z,3.47
2017-12-16T02:32:06.636Z,5.97
2017-12-16T02:34:34.933Z,4.50
2017-12-16T02:37:03.166Z,6.17
2017-12-16T02:39:31.443Z,8.47
2017-12-16T02:41:59.697Z,4.47
2017-12-16T02:44:27.985Z,4.90
2017-12-16T02:46:56.328Z,7.90
2017-12-16T02:49:24.607Z,6.97
2017-12-16T02:51:52.859Z,9.53
2017-12-16T02:54:21.156Z,5.07
2017-12-16T02:56:49.482Z,6.67
2017-12-16T02:59:17.733Z,5.67
2017-12-16T03:01:46.806Z,6.40
2017-12-16T03:04:15.067Z,2.20
2017-12-16T03:06:43.371Z,3.60
2017-12-16T03:09:11.673Z,5.87
2017-12-16T03:11:40.017Z,5.47
2017-12-16T03:14:09.093Z,6.20
2017-12-16T03:16:38.277Z,5.10
2017-12-16T03:19:06.698Z,4.37
2017-12-16T03:21:35.141Z,5.33
2017-12-16T03:24:03.380Z,5.73
2017-12-16T03:26:31.667Z,2.90
2017-12-16T03:28:59.912Z,4.33
2017-12-16T03:31:28.217Z,2.60
2017-12-16T03:33:56.559Z,4.33
2017-12-16T03:36:24.912Z,3.23
2017-12-16T03:38:53.165Z,3.87
2017-12-16T03:41:21.443Z,6.10
2017-12-16T03:43:51.199Z,5.07
2017-12-16T03:46:19.485Z,3.17
2017-12-16T03:48:47.727Z,4.67
2017-12-16T03:51:17.503Z,7.73
2017-12-16T03:53:45.752Z,3.20
2017-12-16T03:56:14.797Z,3.80
2017-12-16T03:58:43.071Z,7.77
2017-12-16T04:01:11.440Z,4.53
2017-12-16T04:03:39.970Z,6.83
2017-12-16T04:06:08.374Z,4.00
2017-12-16T04:08:36.818Z,7.83
2017-12-16T04:11:05.872Z,6.33
2017-12-16T04:13:34.115Z,5.90
2017-12-16T04:16:02.389Z,5.17
2017-12-16T04:18:30.631Z,5.13
2017-12-16T04:20:58.911Z,5.60
2017-12-16T04:23:27.203Z,5.87
2017-12-16T04:25:55.575Z,6.13
2017-12-16T04:28:23.843Z,5.43
2017-12-16T04:30:52.846Z,5.33
2017-12-16T04:33:21.910Z,4.63
2017-12-16T04:35:50.151Z,5.43
2017-12-16T04:38:19.191Z,5.47
2017-12-16T04:40:47.441Z,7.97
2017-12-16T04:43:15.781Z,2.93
2017-12-16T04:45:44.024Z,7.97
2017-12-16T04:48:13.066Z,3.30
2017-12-16T04:50:41.371Z,3.77
2017-12-16T04:53:10.629Z,5.47
2017-12-16T04:55:39.014Z,4.50
2017-12-16T04:58:08.365Z,8.97
2017-12-16T05:00:36.719Z,4.33
2017-12-16T05:03:05.050Z,5.37
2017-12-16T05:05:33.280Z,4.20
2017-12-16T05:08:01.630Z,6.00
2017-12-16T05:10:29.882Z,7.53
2017-12-16T05:12:58.187Z,6.50
2017-12-16T05:15:26.497Z,8.43
2017-12-16T05:17:54.791Z,5.37
2017-12-16T05:20:23.031Z,7.27
2017-12-16T05:22:51.312Z,6.50
2017-12-16T05:25:19.546Z,4.20
2017-12-16T05:27:47.931Z,4.60
2017-12-16T05:30:16.932Z,3.87
2017-12-16T05:32:45.208Z,4.90
2017-12-16T05:35:14.269Z,5.10
2017-12-16T05:37:42.585Z,5.30
2017-12-16T05:40:10.924Z,6.83
2017-12-16T05:42:40.029Z,6.03
2017-12-16T05:45:08.347Z,5.50
2017-12-16T05:47:37.507Z,7.47
2017-12-16T05:50:07.307Z,5.57
2017-12-16T05:52:35.603Z,7.30
2017-12-16T05:55:03.836Z,5.23
2017-12-16T05:57:32.074Z,4.47
2017-12-16T06:00:00.360Z,10.00
2017-12-16T06:02:28.603Z,9.13
2017-12-16T06:04:56.939Z,6.70
2017-12-16T06:07:25.194Z,4.20
2017-12-16T06:09:53.484Z,6.10
2017-12-16T06:12:21.719Z,4.70
2017-12-16T06:14:50.754Z,4.20
2017-12-16T06:17:19.001Z,4.53
2017-12-16T06:19:47.270Z,9.63
2017-12-16T06:22:15.560Z,9.43
2017-12-16T06:24:43.844Z,5.27
2017-12-16T06:27:12.120Z,5.97
2017-12-16T06:29:40.482Z,6.50
2017-12-16T06:32:08.864Z,4.90
2017-12-16T06:34:38.417Z,7.07
2017-12-16T06:37:06.683Z,7.27
2017-12-16T06:39:34.980Z,3.60
2017-12-16T06:42:03.223Z,3.53
2017-12-16T06:44:31.500Z,3.63
2017-12-16T06:46:59.747Z,3.80
2017-12-16T06:49:28.808Z,2.93
2017-12-16T06:51:57.158Z,3.13
2017-12-16T06:54:25.467Z,3.40
2017-12-16T06:56:53.712Z,3.37
2017-12-16T06:59:22.752Z,4.13
2017-12-16T07:01:50.991Z,4.70
2017-12-16T07:04:20.047Z,5.80
2017-12-16T07:06:49.056Z,4.33
2017-12-16T07:09:17.340Z,4.13
2017-12-16T07:11:45.835Z,5.33
2017-12-16T07:14:14.123Z,6.17
2017-12-16T07:16:42.427Z,3.63
2017-12-16T07:19:10.800Z,5.80
2017-12-16T07:21:39.231Z,5.87
2017-12-16T07:24:07.526Z,6.23
2017-12-16T07:26:35.826Z,6.77
2017-12-16T07:29:04.084Z,5.57
2017-12-16T07:31:32.402Z,4.47
2017-12-16T07:34:00.649Z,4.27
2017-12-16T07:36:28.947Z,10.03
2017-12-16T07:38:57.340Z,5.10
2017-12-16T07:41:25.682Z,4.93
2017-12-16T07:43:54.718Z,7.63
2017-12-16T07:46:23.000Z,6.97
2017-12-16T07:48:51.243Z,6.67
2017-12-16T07:51:19.539Z,6.03
2017-12-16T07:53:47.790Z,14.17
2017-12-16T07:56:16.304Z,8.90
2017-12-16T07:58:44.555Z,8.50
2017-12-16T08:01:12.836Z,7.70
2017-12-16T08:03:41.127Z,6.93
2017-12-16T08:06:09.452Z,6.20
2017-12-16T08:08:37.739Z,7.60
2017-12-16T08:11:06.068Z,7.80
2017-12-16T08:13:35.090Z,8.87
2017-12-16T08:16:04.150Z,6.03
2017-12-16T08:18:32.403Z,10.10
2017-12-16T08:21:00.688Z,5.50
2017-12-16T08:23:29.781Z,5.67
2017-12-16T08:25:58.080Z,5.43
2017-12-16T08:28:27.160Z,5.17
2017-12-16T08:30:55.519Z,4.87
2017-12-16T08:33:23.794Z,5.83
2017-12-16T08:35:52.076Z,5.40
2017-12-16T08:38:20.327Z,6.83
2017-12-16T08:40:48.739Z,6.40
2017-12-16T08:43:17.739Z,5.67
2017-12-16T08:45:46.771Z,5.73
2017-12-16T08:48:15.050Z,5.03
2017-12-16T08:50:45.197Z,6.63
2017-12-16T08:53:13.497Z,6.10
2017-12-16T08:55:41.795Z,5.30
2017-12-16T08:58:10.167Z,5.60
2017-12-16T09:00:38.541Z,6.97
2017-12-16T09:03:06.873Z,7.10
2017-12-16T09:05:35.125Z,7.83
2017-12-16T09:08:03.443Z,6.30
2017-12-16T09:10:31.700Z,7.40
2017-12-16T09:12:59.986Z,5.97
2017-12-16T09:15:28.251Z,8.27
2017-12-16T09:17:56.598Z,5.63
2017-12-16T09:20:24.883Z,6.10
2017-12-16T09:22:53.210Z,6.60
2017-12-16T09:25:21.477Z,5.37
2017-12-16T09:27:49.754Z,6.83
2017-12-16T09:30:18.014Z,6.10
2017-12-16T09:32:46.295Z,6.27
2017-12-16T09:35:15.314Z,6.47
2017-12-16T09:37:43.657Z,5.97
2017-12-16T09:40:11.987Z,6.67
2017-12-16T09:42:41.161Z,10.70
2017-12-16T09:45:09.476Z,10.87
2017-12-16T09:47:38.602Z,9.07
2017-12-16T09:50:06.912Z,8.03
2017-12-16T09:52:35.471Z,8.87
2017-12-16T09:55:03.864Z,10.27
2017-12-16T09:57:32.923Z,10.37
2017-12-16T10:00:02.083Z,11.77
2017-12-16T10:02:31.228Z,10.07
2017-12-16T10:04:59.496Z,13.10
2017-12-16T10:07:27.854Z,15.03
2017-12-16T10:09:56.116Z,12.63
2017-12-16T10:12:24.441Z,12.67
2017-12-16T10:14:52.684Z,12.57
2017-12-16T10:17:20.943Z,11.63
2017-12-16T10:19:49.992Z,13.77
2017-12-16T10:22:18.244Z,16.27
2017-12-16T10:24:46.587Z,15.97
2017-12-16T10:27:14.843Z,17.57
2017-12-16T10:29:43.135Z,13.70
2017-12-16T10:32:11.400Z,16.67
2017-12-16T10:34:39.753Z,16.57
2017-12-16T10:37:08.150Z,16.93
2017-12-16T10:39:36.906Z,16.30
2017-12-16T10:42:05.217Z,15.53
2017-12-16T10:44:33.505Z,16.03
2017-12-16T10:47:01.753Z,15.80
2017-12-16T10:49:30.039Z,16.53
2017-12-16T10:51:58.296Z,17.30
2017-12-16T10:54:27.455Z,18.27
2017-12-16T10:56:55.755Z,20.00
2017-12-16T10:59:24.046Z,17.17
2017-12-16T11:01:52.314Z,16.63
2017-12-16T11:04:20.631Z,20.33
2017-12-16T11:06:48.888Z,18.27
2017-12-16T11:09:17.188Z,17.83
2017-12-16T11:11:45.448Z,19.73
2017-12-16T11:14:14.536Z,15.37
2017-12-16T11:16:42.824Z,18.60
2017-12-16T11:19:11.164Z,18.47
2017-12-16T11:21:39.503Z,14.40
2017-12-16T11:24:08.612Z,16.50
2017-12-16T11:26:36.923Z,13.43
2017-12-16T11:29:05.980Z,16.53
2017-12-16T11:31:34.238Z,15.03
2017-12-16T11:34:02.551Z,15.57
2017-12-16T11:36:30.809Z,20.10
2017-12-16T11:38:59.056Z,15.90
2017-12-16T11:41:27.431Z,14.00
2017-12-16T11:43:56.451Z,17.53
2017-12-16T11:46:26.057Z,13.67
2017-12-16T11:48:54.315Z,14.17
2017-12-16T11:51:22.611Z,13.07
2017-12-16T11:53:50.868Z,13.57
2017-12-16T11:56:19.239Z,12.27
2017-12-16T11:58:49.011Z,14.63
2017-12-16T12:01:17.303Z,14.90
2017-12-16T12:03:45.552Z,11.67
2017-12-16T12:06:13.843Z,10.17
2017-12-16T12:08:42.118Z,12.53
2017-12-16T12:11:10.417Z,10.40
2017-12-16T12:13:38.767Z,12.23
2017-12-16T12:16:07.147Z,12.27
2017-12-16T12:18:36.277Z,11.97
2017-12-16T12:21:04.574Z,13.97
2017-12-16T12:23:32.882Z,16.27
2017-12-16T12:26:01.963Z,11.13
2017-12-16T12:28:30.204Z,9.83
2017-12-16T12:30:59.295Z,11.07
2017-12-16T12:33:28.336Z,9.67
2017-12-16T12:35:56.647Z,12.30
2017-12-16T12:38:24.896Z,12.63
2017-12-16T12:40:53.959Z,14.57
2017-12-16T12:43:22.215Z,10.87
2017-12-16T12:45:50.511Z,10.53
2017-12-16T12:48:19.528Z,11.47
2017-12-16T12:50:47.836Z,11.37
2017-12-16T12:53:17.724Z,12.43
2017-12-16T12:55:45.987Z,10.37
2017-12-16T12:58:14.267Z,13.67
2017-12-16T13:00:42.619Z,10.27
2017-12-16T13:03:11.669Z,13.00
2017-12-16T13:05:38.461Z,10.90
2017-12-16T13:08:04.718Z,9.63
2017-12-16T13:10:30.894Z,11.00
2017-12-16T13:12:57.247Z,9.93
2017-12-16T13:15:25.346Z,15.10
2017-12-16T13:17:52.302Z,7.87
2017-12-16T13:20:19.197Z,10.37
2017-12-16T13:22:45.386Z,7.03
2017-12-16T13:25:11.657Z,7.93
2017-12-16T13:27:37.979Z,7.57
2017-12-16T13:30:04.184Z,9.80
2017-12-16T13:32:30.483Z,7.80
2017-12-16T13:34:56.851Z,7.87
2017-12-16T13:37:23.066Z,12.53
2017-12-16T13:39:49.235Z,8.60
2017-12-16T13:42:15.497Z,12.43
2017-12-16T13:44:41.885Z,10.77
2017-12-16T13:47:08.377Z,9.10
2017-12-16T13:49:34.728Z,8.40
2017-12-16T13:52:00.885Z,9.90
2017-12-16T13:54:27.089Z,9.33
2017-12-16T13:56:53.242Z,10.43
2017-12-16T13:59:19.498Z,9.47
2017-12-16T14:01:46.411Z,10.93
2017-12-16T14:04:12.815Z,9.57
2017-12-16T14:06:39.904Z,9.30
2017-12-16T14:09:07.112Z,10.53
2017-12-16T14:11:33.296Z,11.90
2017-12-16T14:14:00.234Z,11.63
2017-12-16T14:16:26.415Z,7.93
2017-12-16T14:18:52.722Z,9.03
2017-12-16T14:21:18.902Z,11.63
2017-12-16T14:23:45.180Z,9.57
2017-12-16T14:26:11.609Z,9.20
2017-12-16T14:28:38.278Z,11.33
2017-12-16T14:31:04.487Z,8.37
2017-12-16T14:33:30.714Z,10.67
2017-12-16T14:35:57.838Z,7.77
2017-12-16T14:38:25.935Z,7.70
2017-12-16T14:40:53.075Z,8.10
2017-12-16T14:43:19.267Z,16.23
2017-12-16T14:45:45.483Z,9.67
2017-12-16T14:48:12.520Z,10.90
2017-12-16T14:50:38.916Z,9.30
2017-12-16T14:53:05.325Z,10.30
2017-12-16T14:55:32.372Z,8.13
2017-12-16T14:57:58.608Z,8.83
2017-12-16T15:00:24.885Z,7.90
2017-12-16T15:02:51.927Z,9.57
2017-12-16T15:05:18.177Z,8.10
2017-12-16T15:07:45.088Z,6.67
2017-12-16T15:10:11.586Z,9.37
2017-12-16T15:12:38.894Z,11.60
2017-12-16T15:15:05.103Z,7.40
2017-12-16T15:17:32.115Z,8.77
2017-12-16T15:19:58.365Z,10.30
2017-12-16T15:22:24.583Z,10.23
2017-12-16T15:24:50.789Z,13.63
2017-12-16T15:27:17.866Z,11.13
2017-12-16T15:29:44.391Z,9.13
2017-12-16T15:32:10.987Z,9.20
2017-12-16T15:34:37.480Z,8.40
2017-12-16T15:37:03.699Z,8.37
2017-12-16T15:39:29.898Z,12.67
2017-12-16T15:41:56.043Z,11.03
2017-12-16T15:44:22.877Z,10.60
2017-12-16T15:46:49.109Z,9.60
2017-12-16T15:49:16.063Z,11.93
2017-12-16T15:51:43.974Z,11.23
2017-12-16T15:54:10.547Z,11.13
2017-12-16T15:56:36.894Z,9.47
2017-12-16T15:59:03.899Z,10.77
2017-12-16T16:01:30.158Z,9.07
2017-12-16T16:03:56.400Z,14.90
2017-12-16T16:06:22.582Z,12.70
2017-12-16T16:08:48.870Z,15.17
2017-12-16T16:11:15.124Z,14.10
2017-12-16T16:13:41.518Z,12.50
2017-12-16T16:16:08.018Z,12.57
2017-12-16T16:18:34.603Z,16.87
2017-12-16T16:21:00.932Z,11.03
2017-12-16T16:23:27.407Z,14.83
2017-12-16T16:25:54.311Z,14.00
2017-12-16T16:28:20.644Z,17.77
2017-12-16T16:30:46.897Z,18.13
2017-12-16T16:33:13.218Z,12.73
2017-12-16T16:35:40.338Z,15.53
2017-12-16T16:38:08.685Z,13.73
2017-12-16T16:40:34.941Z,10.00
2017-12-16T16:43:01.218Z,12.23
2017-12-16T16:45:27.415Z,10.87
2017-12-16T16:47:53.835Z,11.87
2017-12-16T16:50:20.992Z,12.87
2017-12-16T16:52:48.437Z,14.90
2017-12-16T16:55:14.622Z,10.07
2017-12-16T16:57:40.999Z,11.03
2017-12-16T17:00:07.436Z,11.97
2017-12-16T17:02:34.062Z,14.53
2017-12-16T17:05:01.316Z,14.20
2017-12-16T17:07:27.759Z,11.13
2017-12-16T17:09:54.791Z,13.13
2017-12-16T17:12:21.143Z,12.20
2017-12-16T17:14:47.345Z,11.70
2017-12-16T17:17:13.625Z,12.83
2017-12-16T17:19:40.710Z,11.60
2017-12-16T17:22:07.812Z,14.07
2017-12-16T17:24:34.270Z,12.90
2017-12-16T17:27:00.582Z,13.30
2017-12-16T17:29:26.943Z,10.57
2017-12-16T17:31:53.174Z,9.53
2017-12-16T17:34:19.382Z,10.80
2017-12-16T17:36:46.380Z,10.50
2017-12-16T17:39:12.692Z,10.50
2017-12-16T17:41:39.816Z,13.40
2017-12-16T17:44:06.059Z,11.63
2017-12-16T17:46:32.240Z,9.20
2017-12-16T17:48:58.545Z,10.03
2017-12-16T17:51:24.852Z,15.33
2017-12-16T17:53:51.170Z,9.33
2017-12-16T17:56:17.410Z,8.90
2017-12-16T17:58:43.729Z,10.87
2017-12-16T18:01:10.794Z,13.23
2017-12-16T18:03:37.255Z,11.87
2017-12-16T18:06:03.480Z,9.63
2017-12-16T18:08:29.885Z,8.27
2017-12-16T18:10:56.287Z,10.30
2017-12-16T18:13:22.592Z,9.53
2017-12-16T18:15:48.853Z,11.40
2017-12-16T18:18:16.561Z,13.53
2017-12-16T18:20:42.851Z,11.87
2017-12-16T18:23:09.327Z,9.63
2017-12-16T18:25:36.405Z,10.83
2017-12-16T18:28:02.654Z,16.00
2017-12-16T18:30:28.993Z,10.50
2017-12-16T18:32:55.266Z,9.57
2017-12-16T18:35:21.531Z,10.03
2017-12-16T18:37:47.856Z,8.80
2017-12-16T18:40:14.078Z,9.43
2017-12-16T18:42:40.313Z,12.63
2017-12-16T18:45:06.802Z,11.90
2017-12-16T18:47:33.048Z,9.17
2017-12-16T18:49:59.379Z,10.80
2017-12-16T18:52:25.802Z,8.97
2017-12-16T18:54:52.785Z,10.23
2017-12-16T18:57:18.998Z,11.63
2017-12-16T18:59:46.782Z,9.83
2017-12-16T19:02:12.993Z,15.70
2017-12-16T19:04:40.072Z,8.67
2017-12-16T19:07:06.672Z,11.50
2017-12-16T19:09:33.696Z,10.27
2017-12-16T19:11:59.995Z,9.50
2017-12-16T19:14:27.040Z,12.27
2017-12-16T19:16:54.035Z,12.13
2017-12-16T19:19:21.101Z,10.63
2017-12-16T19:21:47.388Z,10.07
2017-12-16T19:24:13.595Z,10.70
2017-12-16T19:26:39.888Z,17.97
2017-12-16T19:29:07.075Z,10.73
2017-12-16T19:31:33.391Z,12.03
2017-12-16T19:34:00.336Z,9.80
2017-12-16T19:36:26.682Z,12.47
2017-12-16T19:38:52.979Z,12.90
2017-12-16T19:41:19.265Z,9.00
2017-12-16T19:43:45.407Z,11.87
2017-12-16T19:46:11.840Z,10.37
2017-12-16T19:48:38.294Z,12.07
2017-12-16T19:51:04.557Z,10.77
2017-12-16T19:53:31.497Z,8.57
2017-12-16T19:55:57.854Z,8.83
2017-12-16T19:58:24.838Z,12.07
2017-12-16T20:00:51.103Z,12.60
2017-12-16T20:03:17.295Z,8.37
2017-12-16T20:05:43.490Z,9.40
2017-12-16T20:08:09.867Z,9.80
2017-12-16T20:10:36.560Z,9.93
2017-12-16T20:13:02.867Z,9.10
2017-12-16T20:15:29.026Z,12.73
2017-12-16T20:17:56.164Z,10.13
2017-12-16T20:20:22.553Z,8.63
2017-12-16T20:22:48.995Z,9.63
2017-12-16T20:25:15.212Z,9.87
2017-12-16T20:27:41.621Z,11.27
2017-12-16T20:30:08.177Z,12.10
2017-12-16T20:32:34.571Z,10.60
2017-12-16T20:35:00.887Z,10.27
2017-12-16T20:37:27.989Z,8.67
2017-12-16T20:39:54.281Z,8.87
2017-12-16T20:42:20.658Z,7.57
2017-12-16T20:44:47.001Z,7.10
2017-12-16T20:47:13.284Z,7.10
2017-12-16T20:49:39.690Z,10.40
2017-12-16T20:52:06.092Z,8.93
2017-12-16T20:54:32.327Z,8.27
2017-12-16T20:56:58.592Z,7.60
2017-12-16T20:59:25.748Z,6.97
2017-12-16T21:01:52.083Z,8.60
2017-12-16T21:04:18.378Z,9.07
2017-12-16T21:06:45.329Z,6.83
2017-12-16T21:09:13.638Z,10.13
2017-12-16T21:11:39.975Z,9.40
2017-12-16T21:14:07.110Z,10.17
2017-12-16T21:16:33.386Z,9.67
2017-12-16T21:18:59.606Z,11.63
2017-12-16T21:21:25.927Z,13.60
2017-12-16T21:23:52.976Z,11.20
2017-12-16T21:26:19.934Z,8.00
2017-12-16T21:28:46.181Z,10.13
2017-12-16T21:31:13.190Z,9.67
2017-12-16T21:33:39.739Z,8.33
2017-12-16T21:36:06.214Z,9.27
2017-12-16T21:38:33.312Z,8.07
2017-12-16T21:41:01.329Z,8.23
2017-12-16T21:43:27.784Z,8.17
2017-12-16T21:45:53.979Z,10.10
2017-12-16T21:48:20.220Z,6.47
2017-12-16T21:50:47.217Z,7.43
2017-12-16T21:53:13.694Z,10.13
2017-12-16T21:55:40.059Z,9.97
2017-12-16T21:58:06.661Z,9.27
2017-12-16T22:00:33.022Z,10.90
2017-12-16T22:02:59.378Z,11.80
2017-12-16T22:05:25.801Z,8.90
2017-12-16T22:07:52.146Z,9.17
2017-12-16T22:10:18.502Z,9.10
2017-12-16T22:12:44.822Z,9.43
2017-12-16T22:15:11.252Z,7.23
2017-12-16T22:17:37.822Z,14.10
2017-12-16T22:20:04.202Z,8.47
2017-12-16T22:22:30.503Z,7.40
2017-12-16T22:24:56.947Z,5.90
2017-12-16T22:27:23.219Z,7.07
2017-12-16T22:29:49.635Z,6.30
2017-12-16T22:32:15.896Z,11.20
2017-12-16T22:34:42.320Z,8.73
2017-12-16T22:37:09.155Z,11.17
2017-12-16T22:39:36.839Z,9.43
2017-12-16T22:42:03.182Z,8.40
2017-12-16T22:44:29.421Z,9.77
2017-12-16T22:46:55.636Z,9.97
2017-12-16T22:49:21.882Z,9.53
2017-12-16T22:51:48.898Z,8.60
2017-12-16T22:54:15.128Z,7.23
2017-12-16T22:56:41.544Z,5.80
2017-12-16T22:59:08.311Z,8.03
2017-12-16T23:01:34.683Z,6.50
2017-12-16T23:04:00.911Z,5.60
2017-12-16T23:06:27.426Z,7.50
2017-12-16T23:08:53.721Z,8.43
2017-12-16T23:11:20.091Z,8.43
2017-12-16T23:13:47.065Z,10.17
2017-12-16T23:16:13.382Z,7.63
2017-12-16T23:18:41.492Z,6.80
2017-12-16T23:21:08.494Z,6.40
2017-12-16T23:23:35.722Z,7.83
2017-12-16T23:26:03.047Z,6.10
2017-12-16T23:28:29.604Z,7.13
2017-12-16T23:30:56.150Z,6.50
2017-12-16T23:33:22.458Z,6.07
2017-12-16T23:35:48.684Z,5.93
2017-12-16T23:38:14.935Z,4.87
2017-12-16T23:40:55.126Z,5.63
2017-12-16T23:43:21.442Z,5.33
2017-12-16T23:45:47.647Z,4.27
2017-12-16T23:48:14.632Z,6.20
2017-12-16T23:50:41.124Z,9.07
2017-12-16T23:53:07.971Z,6.33
2017-12-16T23:55:35.048Z,5.43
2017-12-16T23:58:01.232Z,4.77
